Time;durP1;ratioP1;P1;durP2;ratioP2;P2;SDS_P1;SDS_P2;PMS_P1;PMS_P2;Temp;Humidity;BMP_temperature;BMP_pressure;BME280_temperature;BME280_humidity;BME280_pressure;Samples;Min_cycle;Max_cycle;Signal;HPM_P1;HPM_P2
2022/04/10 00:01:55;;;;;;;;;;;;;;;;;;5061540;28;19981;-59
2022/04/10 00:04:23;;;;;;;;;;;;;;;;;;5082075;28;19920;-59
2022/04/10 00:06:50;;;;;;;;;;;;;;;;;;5080111;28;19981;-59
2022/04/10 00:09:16;;;;;;;;;;;;;;;;;;5080904;28;20477;-59
2022/04/10 00:11:41;;;;;;;;;;;;;;;;;;5062984;28;19939;-59
2022/04/10 00:14:09;;;;;;;;;;;;;;;;;;5080400;28;19920;-60
2022/04/10 00:16:38;;;;;;;;;;;;;;;;;;5082124;28;20042;-59
2022/04/10 00:19:04;;;;;;;;;;;;;;;;;;5065133;28;20017;-59
2022/04/10 00:21:32;;;;;;;;;;;;;;;;;;5079257;28;19920;-61
2022/04/10 00:23:57;;;;;;;;;;;;;;;;;;5060634;28;19930;-59
2022/04/10 00:26:25;;;;;;;;;;;;;;;;;;5062506;28;20416;-60
2022/04/10 00:28:51;;;;;;;;;;;;;;;;;;5062595;28;19938;-59
2022/04/10 00:31:19;;;;;;;;;;;;;;;;;;5046698;28;19924;-59
2022/04/10 00:33:47;;;;;;;;;;;;;;;;;;5060799;28;19951;-59
2022/04/10 00:36:12;;;;;;;;;;;;;;;;;;5080948;28;19915;-60
2022/04/10 00:38:41;;;;;;;;;;;;;;;;;;5078702;28;19926;-60
2022/04/10 00:41:08;;;;;;;;;;;;;;;;;;5079082;28;19955;-61
2022/04/10 00:43:38;;;;;;;;;;;;;;;;;;5063733;28;19920;-59
2022/04/10 00:46:06;;;;;;;;;;;;;;;;;;5076822;28;20015;-59
2022/04/10 00:48:32;;;;;;;;;;;;;;;;;;5058749;28;20016;-59
2022/04/10 00:53:41;;;;;;;;;;;;;;;;;;5060088;28;19924;-59
2022/04/10 00:56:09;;;;;;;;;;;;;;;;;;5043614;28;20647;-59
2022/04/10 00:58:34;;;;;;;;;;;;;;;;;;5043370;28;19920;-59
2022/04/10 01:00:59;;;;;;;;;;;;;;;;;;5079686;28;19920;-59
2022/04/10 01:03:25;;;;;;;;;;;;;;;;;;5076182;28;19923;-59
2022/04/10 01:05:50;;;;;;;;;;;;;;;;;;5043580;28;21866;-59
2022/04/10 01:08:18;;;;;;;;;;;;;;;;;;5058339;28;19919;-59
2022/04/10 01:10:43;;;;;;;;;;;;;;;;;;5061433;28;20441;-59
2022/04/10 01:13:09;;;;;;;;;;;;;;;;;;5061520;28;19920;-59
2022/04/10 01:15:34;;;;;;;;;;;;;;;;;;5078995;28;19919;-59
2022/04/10 01:18:06;;;;;;;;;;;;;;;;;;5061540;28;19919;-59
2022/04/10 01:20:34;;;;;;;;;;;;;;;;;;5080901;28;19949;-59
2022/04/10 01:23:00;;;;;;;;;;;;;;;;;;5060642;28;19939;-59
2022/04/10 01:25:30;;;;;;;;;;;;;;;;;;5084230;28;20851;-59
2022/04/10 01:28:01;;;;;;;;;;;;;;;;;;5079796;28;21516;-59
2022/04/10 01:30:29;;;;;;;;;;;;;;;;;;5044342;28;19916;-60
2022/04/10 01:32:54;;;;;;;;;;;;;;;;;;5044706;28;19923;-59
2022/04/10 01:35:20;;;;;;;;;;;;;;;;;;5058566;28;20411;-59
2022/04/10 01:37:47;;;;;;;;;;;;;;;;;;5060154;28;19926;-59
2022/04/10 01:40:15;;;;;;;;;;;;;;;;;;5077970;28;19926;-60
2022/04/10 01:42:41;;;;;;;;;;;;;;;;;;5060784;28;19955;-61
2022/04/10 01:45:06;;;;;;;;;;;;;;;;;;5079362;28;20639;-59
2022/04/10 01:47:34;;;;;;;;;;;;;;;;;;5061436;28;19927;-59
2022/04/10 01:50:00;;;;;;;;;;;;;;;;;;5079670;28;19987;-59
2022/04/10 01:52:25;;;;;;;;;;;;;;;;;;5045292;28;20275;-59
2022/04/10 01:54:50;;;;;;;;;;;;;;;;;;5062561;28;20025;-59
2022/04/10 01:57:18;;;;;;;;;;;;;;;;;;5059456;28;19931;-59
2022/04/10 01:59:43;;;;;;;;;;;;;;;;;;5060769;28;19987;-59
2022/04/10 02:02:08;;;;;;;;;;;;;;;;;;5059466;28;20707;-58
2022/04/10 02:04:34;;;;;;;;;;;;;;;;;;5061399;28;20020;-61
2022/04/10 02:06:59;;;;;;;;;;;;;;;;;;5077536;28;20002;-58
2022/04/10 02:09:24;;;;;;;;;;;;;;;;;;5043482;28;19920;-59
2022/04/10 02:11:50;;;;;;;;;;;;;;;;;;5065070;28;20405;-59
2022/04/10 02:14:15;;;;;;;;;;;;;;;;;;5058492;28;19916;-59
2022/04/10 02:16:41;;;;;;;;;;;;;;;;;;5080127;28;19919;-59
2022/04/10 02:19:06;;;;;;;;;;;;;;;;;;5061780;28;19916;-59
2022/04/10 02:21:37;;;;;;;;;;;;;;;;;;5077741;28;19916;-60
2022/04/10 02:24:02;;;;;;;;;;;;;;;;;;5080997;28;19954;-60
2022/04/10 02:26:27;;;;;;;;;;;;;;;;;;5061638;28;19947;-60
2022/04/10 02:28:53;;;;;;;;;;;;;;;;;;5061102;28;19967;-60
2022/04/10 02:31:18;;;;;;;;;;;;;;;;;;5057323;28;21112;-60
2022/04/10 02:33:43;;;;;;;;;;;;;;;;;;5061279;28;20035;-60
2022/04/10 02:36:09;;;;;;;;;;;;;;;;;;5041714;28;19916;-60
2022/04/10 02:38:36;;;;;;;;;;;;;;;;;;5060045;28;21288;-60
2022/04/10 02:41:04;;;;;;;;;;;;;;;;;;5081245;28;19920;-61
2022/04/10 02:43:30;;;;;;;;;;;;;;;;;;5064295;28;19966;-60
2022/04/10 02:46:00;;;;;;;;;;;;;;;;;;5064711;28;19920;-60
2022/04/10 02:48:28;;;;;;;;;;;;;;;;;;5062912;28;19958;-60
2022/04/10 02:50:54;;;;;;;;;;;;;;;;;;5080222;27;19930;-60
2022/04/10 02:53:22;;;;;;;;;;;;;;;;;;5083833;28;19920;-60
2022/04/10 02:55:47;;;;;;;;;;;;;;;;;;5082520;28;20004;-59
2022/04/10 02:58:12;;;;;;;;;;;;;;;;;;5048410;28;19980;-60
2022/04/10 03:00:37;;;;;;;;;;;;;;;;;;5047587;28;19920;-59
2022/04/10 03:03:03;;;;;;;;;;;;;;;;;;5066849;28;19999;-60
2022/04/10 03:05:28;;;;;;;;;;;;;;;;;;5083246;28;19977;-59
2022/04/10 03:07:56;;;;;;;;;;;;;;;;;;5044551;28;19973;-60
2022/04/10 03:10:25;;;;;;;;;;;;;;;;;;5064180;28;20043;-59
2022/04/10 03:12:52;;;;;;;;;;;;;;;;;;5060698;28;19939;-59
2022/04/10 03:15:18;;;;;;;;;;;;;;;;;;5081645;28;19928;-59
2022/04/10 03:17:44;;;;;;;;;;;;;;;;;;5063916;28;19920;-59
2022/04/10 03:20:11;;;;;;;;;;;;;;;;;;5082869;28;20058;-59
2022/04/10 03:22:36;;;;;;;;;;;;;;;;;;5062536;28;19920;-59
2022/04/10 03:25:01;;;;;;;;;;;;;;;;;;5047340;28;19947;-59
2022/04/10 03:27:29;;;;;;;;;;;;;;;;;;5064635;28;19931;-59
2022/04/10 03:29:54;;;;;;;;;;;;;;;;;;5081458;28;19916;-60
2022/04/10 03:32:20;;;;;;;;;;;;;;;;;;5068815;28;19977;-58
2022/04/10 03:34:45;;;;;;;;;;;;;;;;;;5062666;28;19915;-60
2022/04/10 03:37:13;;;;;;;;;;;;;;;;;;5064557;28;19920;-60
2022/04/10 03:39:38;;;;;;;;;;;;;;;;;;5051907;28;20054;-59
2022/04/10 03:42:06;;;;;;;;;;;;;;;;;;5046500;28;20501;-59
2022/04/10 03:44:31;;;;;;;;;;;;;;;;;;5045482;28;19920;-61
2022/04/10 03:46:57;;;;;;;;;;;;;;;;;;5062714;28;19927;-60
2022/04/10 03:49:24;;;;;;;;;;;;;;;;;;5086458;28;19915;-60
2022/04/10 03:51:52;;;;;;;;;;;;;;;;;;5068999;28;19919;-60
2022/04/10 03:54:17;;;;;;;;;;;;;;;;;;5069970;28;20306;-60
2022/04/10 03:56:43;;;;;;;;;;;;;;;;;;5087757;28;20325;-60
2022/04/10 03:59:10;;;;;;;;;;;;;;;;;;5082815;28;19916;-60
2022/04/10 04:01:36;;;;;;;;;;;;;;;;;;5046736;28;19970;-60
2022/04/10 04:04:03;;;;;;;;;;;;;;;;;;5063795;28;19935;-61
2022/04/10 04:06:31;;;;;;;;;;;;;;;;;;5080796;28;19920;-60
2022/04/10 04:08:57;;;;;;;;;;;;;;;;;;5063392;28;20687;-61
2022/04/10 04:11:25;;;;;;;;;;;;;;;;;;5081065;28;20407;-59
2022/04/10 04:13:55;;;;;;;;;;;;;;;;;;5046831;28;19972;-59
2022/04/10 04:16:20;;;;;;;;;;;;;;;;;;5045749;28;19965;-60
2022/04/10 04:18:45;;;;;;;;;;;;;;;;;;5046487;28;19923;-61
2022/04/10 04:21:13;;;;;;;;;;;;;;;;;;5079165;28;19920;-59
2022/04/10 04:23:41;;;;;;;;;;;;;;;;;;5047439;28;19927;-59
2022/04/10 04:26:06;;;;;;;;;;;;;;;;;;5080925;28;21163;-61
2022/04/10 04:28:36;;;;;;;;;;;;;;;;;;5063983;28;20956;-59
2022/04/10 04:31:05;;;;;;;;;;;;;;;;;;5079236;28;19940;-59
2022/04/10 04:33:30;;;;;;;;;;;;;;;;;;5063351;28;20512;-59
2022/04/10 04:35:55;;;;;;;;;;;;;;;;;;5060145;28;19915;-60
2022/04/10 04:38:21;;;;;;;;;;;;;;;;;;5079549;28;20458;-59
2022/04/10 04:40:46;;;;;;;;;;;;;;;;;;5081350;28;20038;-59
2022/04/10 04:43:15;;;;;;;;;;;;;;;;;;5080318;28;20824;-60
2022/04/10 04:45:40;;;;;;;;;;;;;;;;;;5062542;28;19924;-60
2022/04/10 04:48:05;;;;;;;;;;;;;;;;;;5049664;28;19922;-60
2022/04/10 04:50:33;;;;;;;;;;;;;;;;;;5082365;28;19960;-60
2022/04/10 04:53:01;;;;;;;;;;;;;;;;;;5061722;28;20381;-59
2022/04/10 04:55:29;;;;;;;;;;;;;;;;;;5062917;28;20343;-59
2022/04/10 04:57:57;;;;;;;;;;;;;;;;;;5082692;28;19926;-60
2022/04/10 05:00:24;;;;;;;;;;;;;;;;;;5044957;28;20421;-60
2022/04/10 05:02:52;;;;;;;;;;;;;;;;;;5078316;28;20624;-60
2022/04/10 05:05:17;;;;;;;;;;;;;;;;;;5060607;28;19932;-59
2022/04/10 05:07:47;;;;;;;;;;;;;;;;;;5080167;28;19951;-61
2022/04/10 05:10:13;;;;;;;;;;;;;;;;;;5045741;28;19927;-60
2022/04/10 05:12:38;;;;;;;;;;;;;;;;;;5061265;28;20949;-60
2022/04/10 05:15:07;;;;;;;;;;;;;;;;;;5077386;28;19920;-59
2022/04/10 05:17:37;;;;;;;;;;;;;;;;;;5083084;28;19920;-59
2022/04/10 05:20:03;;;;;;;;;;;;;;;;;;5081355;28;19920;-59
2022/04/10 05:22:28;;;;;;;;;;;;;;;;;;5049350;28;19930;-60
2022/04/10 05:24:53;;;;;;;;;;;;;;;;;;5080670;28;19919;-61
2022/04/10 05:27:21;;;;;;;;;;;;;;;;;;5058498;28;19992;-60
2022/04/10 05:29:46;;;;;;;;;;;;;;;;;;5060532;28;19924;-61
2022/04/10 05:32:12;;;;;;;;;;;;;;;;;;5062839;28;19928;-60
2022/04/10 05:34:37;;;;;;;;;;;;;;;;;;5079960;28;20364;-62
2022/04/10 05:37:02;;;;;;;;;;;;;;;;;;5045696;28;20014;-61
2022/04/10 05:39:27;;;;;;;;;;;;;;;;;;5063544;28;20650;-60
2022/04/10 05:41:52;;;;;;;;;;;;;;;;;;5066230;28;19915;-60
2022/04/10 05:44:18;;;;;;;;;;;;;;;;;;5064822;28;19956;-60
2022/04/10 05:46:43;;;;;;;;;;;;;;;;;;5083250;28;19920;-60
2022/04/10 05:49:08;;;;;;;;;;;;;;;;;;5066111;28;19927;-60
2022/04/10 05:51:36;;;;;;;;;;;;;;;;;;5082145;28;19928;-60
2022/04/10 05:54:01;;;;;;;;;;;;;;;;;;5044601;28;21846;-60
2022/04/10 05:56:26;;;;;;;;;;;;;;;;;;5043282;28;19916;-61
2022/04/10 05:58:54;;;;;;;;;;;;;;;;;;5063378;28;20327;-61
2022/04/10 06:01:22;;;;;;;;;;;;;;;;;;5076023;28;20013;-61
2022/04/10 06:03:49;;;;;;;;;;;;;;;;;;5057787;28;20679;-59
2022/04/10 06:06:18;;;;;;;;;;;;;;;;;;5078327;28;19916;-58
2022/04/10 06:08:43;;;;;;;;;;;;;;;;;;5084026;28;19959;-61
2022/04/10 06:11:09;;;;;;;;;;;;;;;;;;5066526;28;20042;-61
2022/04/10 06:13:34;;;;;;;;;;;;;;;;;;5066048;28;19920;-59
2022/04/10 06:15:59;;;;;;;;;;;;;;;;;;5052118;28;19919;-59
2022/04/10 06:18:25;;;;;;;;;;;;;;;;;;5088330;28;19943;-59
2022/04/10 06:20:55;;;;;;;;;;;;;;;;;;5051834;28;19920;-58
2022/04/10 06:23:26;;;;;;;;;;;;;;;;;;5064619;28;19987;-58
2022/04/10 06:25:52;;;;;;;;;;;;;;;;;;5083361;28;19927;-59
2022/04/10 06:28:17;;;;;;;;;;;;;;;;;;5048338;28;19924;-59
2022/04/10 06:30:44;;;;;;;;;;;;;;;;;;5082614;28;20047;-60
2022/04/10 06:33:09;;;;;;;;;;;;;;;;;;5063037;28;20017;-59
2022/04/10 06:35:38;;;;;;;;;;;;;;;;;;5063259;28;19923;-59
2022/04/10 06:38:03;;;;;;;;;;;;;;;;;;5088691;28;19951;-60
2022/04/10 06:40:29;;;;;;;;;;;;;;;;;;5050115;28;20054;-59
2022/04/10 06:42:54;;;;;;;;;;;;;;;;;;5069463;28;20389;-59
2022/04/10 06:45:22;;;;;;;;;;;;;;;;;;5087783;28;20469;-60
2022/04/10 06:47:47;;;;;;;;;;;;;;;;;;5090033;28;19926;-60
2022/04/10 06:50:13;;;;;;;;;;;;;;;;;;5069946;28;19942;-57
2022/04/10 06:52:40;;;;;;;;;;;;;;;;;;5089132;28;20396;-58
2022/04/10 06:55:05;;;;;;;;;;;;;;;;;;5086870;28;20084;-59
2022/04/10 06:57:31;;;;;;;;;;;;;;;;;;5071354;28;19919;-58
2022/04/10 07:00:01;;;;;;;;;;;;;;;;;;5069256;28;19931;-60
2022/04/10 07:02:26;;;;;;;;;;;;;;;;;;5086737;28;19927;-59
2022/04/10 07:04:55;;;;;;;;;;;;;;;;;;5081175;28;19966;-60
2022/04/10 07:07:20;;;;;;;;;;;;;;;;;;5064323;28;19919;-60
2022/04/10 07:09:45;;;;;;;;;;;;;;;;;;5082668;28;21807;-59
2022/04/10 07:12:11;;;;;;;;;;;;;;;;;;5079969;28;20531;-61
2022/04/10 07:14:36;;;;;;;;;;;;;;;;;;5082772;28;20005;-60
2022/04/10 07:17:05;;;;;;;;;;;;;;;;;;5064627;28;19924;-59
2022/04/10 07:19:30;;;;;;;;;;;;;;;;;;5083133;28;19916;-58
2022/04/10 07:24:42;;;;;;;;;;;;;;;;;;5060795;28;20240;-59
2022/04/10 07:27:07;;;;;;;;;;;;;;;;;;5081788;28;20527;-58
2022/04/10 07:29:32;;;;;;;;;;;;;;;;;;5067039;28;19947;-59
2022/04/10 07:32:11;;;;;;;;;;;;;;;;;;;;;
2022/04/10 07:35:11;;;;;;;;;;;;;;;;;;5081267;28;20992;-59
2022/04/10 07:37:38;;;;;;;;;;;;;;;;;;5065817;28;19927;-59
2022/04/10 07:40:04;;;;;;;;;;;;;;;;;;5081610;28;19920;-60
2022/04/10 07:42:31;;;;;;;;;;;;;;;;;;5080378;28;21563;-59
2022/04/10 07:44:59;;;;;;;;;;;;;;;;;;5058550;28;20504;-59
2022/04/10 07:47:27;;;;;;;;;;;;;;;;;;5081295;28;19919;-59
2022/04/10 07:49:53;;;;;;;;;;;;;;;;;;5078758;28;20367;-60
2022/04/10 07:52:21;;;;;;;;;;;;;;;;;;5047922;28;22101;-60
2022/04/10 07:54:48;;;;;;;;;;;;;;;;;;5061596;28;20001;-59
2022/04/10 07:57:13;;;;;;;;;;;;;;;;;;5062264;28;19916;-60
2022/04/10 07:59:38;;;;;;;;;;;;;;;;;;5079691;28;19954;-59
2022/04/10 08:02:04;;;;;;;;;;;;;;;;;;5079185;28;19926;-61
2022/04/10 08:04:29;;;;;;;;;;;;;;;;;;5059034;28;19923;-60
2022/04/10 08:06:57;;;;;;;;;;;;;;;;;;5058849;28;19942;-61
2022/04/10 08:09:25;;;;;;;;;;;;;;;;;;5055955;28;20042;-61
2022/04/10 08:11:53;;;;;;;;;;;;;;;;;;5081603;28;19924;-59
2022/04/10 08:14:21;;;;;;;;;;;;;;;;;;5060369;28;19931;-60
2022/04/10 08:16:47;;;;;;;;;;;;;;;;;;5059898;28;19926;-61
2022/04/10 08:19:16;;;;;;;;;;;;;;;;;;5095964;22;19896;-90
2022/04/10 08:21:59;;;;;;;;;;;;;;;;;;5064434;28;20527;-88
2022/04/10 08:24:36;;;;;;;;;;;;;;;;;;5049029;28;20334;-90
2022/04/10 08:27:21;;;;;;;;;;;;;;;;;;5055926;28;19992;-88
2022/04/10 08:29:48;;;;;;;;;;;;;;;;;;5048780;28;19913;-88
2022/04/10 08:32:17;;;;;;;;;;;;;;;;;;5054564;28;20840;-91
2022/04/10 08:34:45;;;;;;;;;;;;;;;;;;5042396;28;20334;-90
2022/04/10 08:37:13;;;;;;;;;;;;;;;;;;5014313;28;19917;-88
2022/04/10 08:40:00;;;;;;;;;;;;;;;;;;;;;
2022/04/10 08:42:56;;;;;;;;;;;;;;;;;;5007720;28;19913;-88
2022/04/10 08:45:30;;;;;;;;;;;;;;;;;;5010652;28;19913;-90
2022/04/10 08:48:18;;;;;;;;;;;;;;;;;;5009107;28;19917;-90
2022/04/10 08:51:10;;;;;;;;;;;;;;;;;;4997132;28;19917;-90
2022/04/10 08:53:51;;;;;;;;;;;;;;;;;;5001806;28;20278;-90
2022/04/10 08:56:28;;;;;;;;;;;;;;;;;;5041137;28;19956;-89
2022/04/10 08:59:02;;;;;;;;;;;;;;;;;;4997047;28;20388;-90
2022/04/10 09:01:37;;;;;;;;;;;;;;;;;;5010859;28;19921;-88
2022/04/10 09:17:46;;;;;;;;;;;;;;;;;;5008968;28;20035;-89
2022/04/10 09:34:33;;;;;;;;;;;;;;;;;;4902198;29;19920;-89
2022/04/10 09:47:16;;;;;;;;;;;;;;;;;;4875182;29;19927;-91
2022/04/10 09:49:59;;;;;;;;;;;;;;;;;;4960243;28;19973;-89
2022/04/10 09:55:55;;;;;;;;;;;;;;;;;;4957556;28;19977;-89
2022/04/10 09:58:48;;;;;;;;;;;;;;;;;;;;;
2022/04/10 10:01:44;;;;;;;;;;;;;;;;;;5021953;28;19937;-90
2022/04/10 10:07:59;;;;;;;;;;;;;;;;;;5033470;28;19928;-88
2022/04/10 10:10:44;;;;;;;;;;;;;;;;;;5012116;28;19913;-90
2022/04/10 10:13:33;;;;;;;;;;;;;;;;;;4963594;28;19925;-90
2022/04/10 10:16:42;;;;;;;;;;;;;;;;;;;;;
2022/04/10 10:19:13;;;;;;;;;;;;;;;;;;4954653;28;20451;-90
2022/04/10 10:25:39;;;;;;;;;;;;;;;;;;4935970;29;20099;-90
2022/04/10 10:40:47;;;;;;;;;;;;;;;;;;4878322;29;19931;-89
2022/04/10 10:43:37;;;;;;;;;;;;;;;;;;4936397;29;19930;-89
2022/04/10 10:46:28;;;;;;;;;;;;;;;;;;4942080;28;19923;-88
2022/04/10 10:49:06;;;;;;;;;;;;;;;;;;4923100;29;20340;-88
2022/04/10 10:52:09;;;;;;;;;;;;;;;;;;;;;
2022/04/10 11:01:29;;;;;;;;;;;;;;;;;;;;;
2022/04/10 11:14:04;;;;;;;;;;;;;;;;;;;;;
2022/04/10 11:16:47;;;;;;;;;;;;;;;;;;4960947;28;19926;-89
2022/04/10 11:19:15;;;;;;;;;;;;;;;;;;4982820;28;20024;-88
2022/04/10 11:25:41;;;;;;;;;;;;;;;;;;;;;
2022/04/10 11:44:15;;;;;;;;;;;;;;;;;;4841636;29;20258;-91
2022/04/10 11:46:46;;;;;;;;;;;;;;;;;;4872786;28;19924;-90
2022/04/10 11:49:30;;;;;;;;;;;;;;;;;;4999714;28;19929;-92
2022/04/10 11:55:18;;;;;;;;;;;;;;;;;;4991251;28;20208;-90
2022/04/10 11:58:16;;;;;;;;;;;;;;;;;;4987290;28;19933;-91
2022/04/10 12:00:43;;;;;;;;;;;;;;;;;;4974103;28;20449;-89
2022/04/10 12:03:15;;;;;;;;;;;;;;;;;;4972745;28;20371;-90
2022/04/10 12:05:53;;;;;;;;;;;;;;;;;;4990210;28;19966;-89
2022/04/10 12:08:28;;;;;;;;;;;;;;;;;;4991155;28;20503;-89
2022/04/10 12:10:54;;;;;;;;;;;;;;;;;;5025122;28;19913;-89
2022/04/10 12:13:41;;;;;;;;;;;;;;;;;;;;;
2022/04/10 12:16:24;;;;;;;;;;;;;;;;;;4992612;28;19924;-90
2022/04/10 12:19:50;;;;;;;;;;;;;;;;;;4970960;28;19914;-89
2022/04/10 12:22:34;;;;;;;;;;;;;;;;;;4942054;28;20013;-88
2022/04/10 12:25:05;;;;;;;;;;;;;;;;;;5019174;28;19916;-91
2022/04/10 12:27:47;;;;;;;;;;;;;;;;;;;;;
2022/04/10 12:30:21;;;;;;;;;;;;;;;;;;5029070;28;20008;-89
2022/04/10 12:32:47;;;;;;;;;;;;;;;;;;5021755;28;20023;-88
2022/04/10 12:35:23;;;;;;;;;;;;;;;;;;5045110;28;19917;-90
2022/04/10 12:37:58;;;;;;;;;;;;;;;;;;5022257;28;19917;-90
2022/04/10 12:40:27;;;;;;;;;;;;;;;;;;5004558;28;19917;-89
2022/04/10 12:43:09;;;;;;;;;;;;;;;;;;5025988;28;19942;-89
2022/04/10 12:45:40;;;;;;;;;;;;;;;;;;5011718;28;19910;-89
2022/04/10 12:48:06;;;;;;;;;;;;;;;;;;5019273;28;19988;-89
2022/04/10 12:50:52;;;;;;;;;;;;;;;;;;;;;
2022/04/10 12:53:53;;;;;;;;;;;;;;;;;;4998634;28;19972;-87
2022/04/10 12:56:25;;;;;;;;;;;;;;;;;;5032607;28;19913;-88
2022/04/10 13:02:03;;;;;;;;;;;;;;;;;;;;;
2022/04/10 13:04:32;;;;;;;;;;;;;;;;;;5005161;28;19968;-87
2022/04/10 13:07:00;;;;;;;;;;;;;;;;;;5036569;28;20036;-89
2022/04/10 13:09:35;;;;;;;;;;;;;;;;;;4996778;28;20652;-88
2022/04/10 13:14:58;;;;;;;;;;;;;;;;;;5028296;28;20601;-89
2022/04/10 13:17:39;;;;;;;;;;;;;;;;;;4990112;28;19924;-90
2022/04/10 13:20:08;;;;;;;;;;;;;;;;;;5002044;28;20023;-90
2022/04/10 13:28:45;;;;;;;;;;;;;;;;;;5014266;28;20348;-89
2022/04/10 13:31:18;;;;;;;;;;;;;;;;;;5031609;28;19928;-89
2022/04/10 13:33:51;;;;;;;;;;;;;;;;;;5053079;28;19928;-88
2022/04/10 13:36:23;;;;;;;;;;;;;;;;;;5074573;28;20059;-88
2022/04/10 13:38:49;;;;;;;;;;;;;;;;;;5050282;28;19913;-86
2022/04/10 13:41:16;;;;;;;;;;;;;;;;;;5048634;28;19958;-88
2022/04/10 13:43:50;;;;;;;;;;;;;;;;;;5041491;28;19913;-88
2022/04/10 13:46:25;;;;;;;;;;;;;;;;;;5050579;28;20091;-88
2022/04/10 13:48:54;;;;;;;;;;;;;;;;;;5048267;28;19945;-88
2022/04/10 13:51:20;;;;;;;;;;;;;;;;;;5048601;28;19920;-87
2022/04/10 13:53:48;;;;;;;;;;;;;;;;;;5032145;28;19912;-89
2022/04/10 13:59:36;;;;;;;;;;;;;;;;;;4970120;28;19998;-88
2022/04/10 14:02:15;;;;;;;;;;;;;;;;;;4970947;28;20437;-90
2022/04/10 14:04:51;;;;;;;;;;;;;;;;;;4983131;28;19922;-87
2022/04/10 14:07:17;;;;;;;;;;;;;;;;;;5056291;28;19924;-89
2022/04/10 14:09:46;;;;;;;;;;;;;;;;;;5051499;28;19913;-89
2022/04/10 14:12:19;;;;;;;;;;;;;;;;;;5073671;28;20024;-89
2022/04/10 14:14:45;;;;;;;;;;;;;;;;;;5057068;28;19927;-89
2022/04/10 14:17:16;;;;;;;;;;;;;;;;;;5066181;28;19962;-87
2022/04/10 14:19:49;;;;;;;;;;;;;;;;;;5052172;28;19965;-90
2022/04/10 14:22:19;;;;;;;;;;;;;;;;;;5068109;28;20114;-89
2022/04/10 14:24:47;;;;;;;;;;;;;;;;;;5066755;28;19974;-88
2022/04/10 14:27:13;;;;;;;;;;;;;;;;;;5046732;28;19913;-89
2022/04/10 14:29:48;;;;;;;;;;;;;;;;;;5034546;28;19913;-89
2022/04/10 14:32:28;;;;;;;;;;;;;;;;;;5067103;28;19992;-89
2022/04/10 14:34:56;;;;;;;;;;;;;;;;;;5049517;28;19920;-89
2022/04/10 14:37:26;;;;;;;;;;;;;;;;;;5050226;28;19990;-91
2022/04/10 14:43:21;;;;;;;;;;;;;;;;;;5076123;28;19974;-88
2022/04/10 14:45:56;;;;;;;;;;;;;;;;;;5058771;28;19916;-90
2022/04/10 14:48:34;;;;;;;;;;;;;;;;;;5061044;28;19912;-89
2022/04/10 14:51:10;;;;;;;;;;;;;;;;;;5072478;28;20002;-91
2022/04/10 14:53:39;;;;;;;;;;;;;;;;;;5055371;28;19913;-91
2022/04/10 14:56:22;;;;;;;;;;;;;;;;;;5053604;28;20194;-89
2022/04/10 14:58:56;;;;;;;;;;;;;;;;;;5051435;28;19920;-89
2022/04/10 15:01:38;;;;;;;;;;;;;;;;;;5070418;28;19916;-90
2022/04/10 15:04:07;;;;;;;;;;;;;;;;;;5039972;28;20042;-89
2022/04/10 15:06:41;;;;;;;;;;;;;;;;;;5053511;28;19979;-89
2022/04/10 15:09:07;;;;;;;;;;;;;;;;;;5040993;28;19949;-91
2022/04/10 15:11:32;;;;;;;;;;;;;;;;;;5053288;28;20517;-90
2022/04/10 15:14:01;;;;;;;;;;;;;;;;;;5052253;28;19912;-89
2022/04/10 15:16:47;;;;;;;;;;;;;;;;;;4981939;28;20914;-90
2022/04/10 15:19:22;;;;;;;;;;;;;;;;;;4978730;28;19959;-89
2022/04/10 15:21:56;;;;;;;;;;;;;;;;;;4994713;28;20561;-88
2022/04/10 15:24:32;;;;;;;;;;;;;;;;;;4995862;28;20526;-88
2022/04/10 15:27:10;;;;;;;;;;;;;;;;;;4995525;28;19961;-89
2022/04/10 15:29:36;;;;;;;;;;;;;;;;;;4996865;28;19913;-89
2022/04/10 15:32:27;;;;;;;;;;;;;;;;;;4994915;28;19928;-89
2022/04/10 15:35:05;;;;;;;;;;;;;;;;;;;;;
2022/04/10 15:37:35;;;;;;;;;;;;;;;;;;4992283;28;20542;-90
2022/04/10 15:40:04;;;;;;;;;;;;;;;;;;4976138;28;20242;-89
2022/04/10 15:42:32;;;;;;;;;;;;;;;;;;4991881;28;19926;-88
2022/04/10 15:45:03;;;;;;;;;;;;;;;;;;4977031;28;20037;-88
2022/04/10 15:47:40;;;;;;;;;;;;;;;;;;4999927;28;19925;-91
2022/04/10 15:50:05;;;;;;;;;;;;;;;;;;5032157;28;20504;-89
2022/04/10 15:52:40;;;;;;;;;;;;;;;;;;5019917;28;19924;-90
2022/04/10 15:55:27;;;;;;;;;;;;;;;;;;5045964;28;19917;-90
2022/04/10 15:57:58;;;;;;;;;;;;;;;;;;5019437;28;19912;-88
2022/04/10 16:00:24;;;;;;;;;;;;;;;;;;5049144;28;20028;-88
2022/04/10 16:02:53;;;;;;;;;;;;;;;;;;5016142;28;19929;-89
2022/04/10 16:05:42;;;;;;;;;;;;;;;;;;5037455;28;19913;-88
2022/04/10 16:08:15;;;;;;;;;;;;;;;;;;5045861;28;20610;-89
2022/04/10 16:10:51;;;;;;;;;;;;;;;;;;5044351;28;20331;-89
2022/04/10 16:13:16;;;;;;;;;;;;;;;;;;5032021;28;19913;-89
2022/04/10 16:15:46;;;;;;;;;;;;;;;;;;5047608;28;19940;-89
2022/04/10 16:18:12;;;;;;;;;;;;;;;;;;5047229;28;19917;-89
2022/04/10 16:20:37;;;;;;;;;;;;;;;;;;5034227;28;19974;-87
2022/04/10 16:23:22;;;;;;;;;;;;;;;;;;5045892;28;19925;-87
2022/04/10 16:25:59;;;;;;;;;;;;;;;;;;5062604;28;20265;-87
2022/04/10 16:31:16;;;;;;;;;;;;;;;;;;5047979;28;19997;-88
2022/04/10 16:36:35;;;;;;;;;;;;;;;;;;5046251;28;20001;-90
2022/04/10 16:39:06;;;;;;;;;;;;;;;;;;5064572;28;19917;-89
2022/04/10 16:41:41;;;;;;;;;;;;;;;;;;5013839;28;20320;-90
2022/04/10 16:44:06;;;;;;;;;;;;;;;;;;4994950;28;20024;-87
2022/04/10 16:46:44;;;;;;;;;;;;;;;;;;4977995;28;20341;-90
2022/04/10 16:49:12;;;;;;;;;;;;;;;;;;4996314;28;19979;-86
2022/04/10 16:51:37;;;;;;;;;;;;;;;;;;4982293;28;19918;-91
2022/04/10 16:56:52;;;;;;;;;;;;;;;;;;4998009;28;19949;-88
2022/04/10 16:59:24;;;;;;;;;;;;;;;;;;4999303;28;19917;-87
2022/04/10 17:02:09;;;;;;;;;;;;;;;;;;4997448;28;20012;-88
2022/04/10 17:04:39;;;;;;;;;;;;;;;;;;4988313;28;20295;-88
2022/04/10 17:07:16;;;;;;;;;;;;;;;;;;4996734;28;19924;-87
2022/04/10 17:09:50;;;;;;;;;;;;;;;;;;4977128;28;19913;-89
2022/04/10 17:12:18;;;;;;;;;;;;;;;;;;5013990;28;19995;-88
2022/04/10 17:14:53;;;;;;;;;;;;;;;;;;5034246;28;19956;-89
2022/04/10 17:17:18;;;;;;;;;;;;;;;;;;5031629;28;19920;-89
2022/04/10 17:19:47;;;;;;;;;;;;;;;;;;5058872;28;19939;-88
2022/04/10 17:22:17;;;;;;;;;;;;;;;;;;5075580;28;20004;-88
2022/04/10 17:25:02;;;;;;;;;;;;;;;;;;5058399;28;19956;-86
2022/04/10 17:27:34;;;;;;;;;;;;;;;;;;5070106;28;19987;-90
2022/04/10 17:30:21;;;;;;;;;;;;;;;;;;5049770;28;19923;-88
2022/04/10 17:32:47;;;;;;;;;;;;;;;;;;5033269;28;19920;-89
2022/04/10 17:35:22;;;;;;;;;;;;;;;;;;5019062;28;19915;-88
2022/04/10 17:37:47;;;;;;;;;;;;;;;;;;5034977;28;19928;-87
2022/04/10 17:40:33;;;;;;;;;;;;;;;;;;5049716;28;20007;-89
2022/04/10 17:43:29;;;;;;;;;;;;;;;;;;5053059;28;19921;-88
2022/04/10 17:46:25;;;;;;;;;;;;;;;;;;5069239;28;19925;-87
2022/04/10 17:49:12;;;;;;;;;;;;;;;;;;5067378;28;20023;-88
2022/04/10 17:51:57;;;;;;;;;;;;;;;;;;5068902;28;19917;-89
2022/04/10 17:54:26;;;;;;;;;;;;;;;;;;5050907;28;19923;-86
2022/04/10 17:56:51;;;;;;;;;;;;;;;;;;5048317;28;19952;-87
2022/04/10 17:59:37;;;;;;;;;;;;;;;;;;5048617;28;20285;-88
2022/04/10 18:02:11;;;;;;;;;;;;;;;;;;5037451;28;19920;-88
2022/04/10 18:04:38;;;;;;;;;;;;;;;;;;5055081;28;20046;-88
2022/04/10 18:07:04;;;;;;;;;;;;;;;;;;5068682;28;19932;-87
2022/04/10 18:09:31;;;;;;;;;;;;;;;;;;5035115;28;20287;-88
2022/04/10 18:11:58;;;;;;;;;;;;;;;;;;5068256;28;19923;-88
2022/04/10 18:14:23;;;;;;;;;;;;;;;;;;5054812;28;20009;-87
2022/04/10 18:16:52;;;;;;;;;;;;;;;;;;5058175;28;20358;-90
2022/04/10 18:19:42;;;;;;;;;;;;;;;;;;4998899;28;19924;-87
2022/04/10 18:22:14;;;;;;;;;;;;;;;;;;5016793;28;19972;-88
2022/04/10 18:24:45;;;;;;;;;;;;;;;;;;5001697;28;20315;-89
2022/04/10 18:27:16;;;;;;;;;;;;;;;;;;5000930;28;20005;-87
2022/04/10 18:29:49;;;;;;;;;;;;;;;;;;5000610;28;19949;-88
2022/04/10 18:32:24;;;;;;;;;;;;;;;;;;5014657;28;19999;-89
2022/04/10 18:34:49;;;;;;;;;;;;;;;;;;4999977;28;19921;-91
2022/04/10 18:37:14;;;;;;;;;;;;;;;;;;5012881;28;20630;-87
2022/04/10 18:40:07;;;;;;;;;;;;;;;;;;5015538;28;19924;-89
2022/04/10 18:42:38;;;;;;;;;;;;;;;;;;5016764;28;19921;-87
2022/04/10 18:45:31;;;;;;;;;;;;;;;;;;5014426;28;20029;-88
2022/04/10 18:47:57;;;;;;;;;;;;;;;;;;5012632;28;19925;-88
2022/04/10 18:50:42;;;;;;;;;;;;;;;;;;5034831;28;19916;-87
2022/04/10 18:53:19;;;;;;;;;;;;;;;;;;5036600;28;19917;-87
2022/04/10 18:55:54;;;;;;;;;;;;;;;;;;5051833;28;19928;-87
2022/04/10 18:58:21;;;;;;;;;;;;;;;;;;5034325;28;19928;-90
2022/04/10 19:00:56;;;;;;;;;;;;;;;;;;5066229;28;19913;-86
2022/04/10 19:03:47;;;;;;;;;;;;;;;;;;5045827;28;20035;-90
2022/04/10 19:06:17;;;;;;;;;;;;;;;;;;5038053;28;19948;-90
2022/04/10 19:08:46;;;;;;;;;;;;;;;;;;5056199;28;19917;-87
2022/04/10 19:11:28;;;;;;;;;;;;;;;;;;5069799;28;19968;-90
2022/04/10 19:14:04;;;;;;;;;;;;;;;;;;5052310;28;19921;-88
2022/04/10 19:16:52;;;;;;;;;;;;;;;;;;5049922;28;20312;-90
2022/04/10 19:19:27;;;;;;;;;;;;;;;;;;5052699;28;20302;-90
2022/04/10 19:22:03;;;;;;;;;;;;;;;;;;5068980;28;19921;-91
2022/04/10 19:24:33;;;;;;;;;;;;;;;;;;5051130;28;19912;-89
2022/04/10 19:27:21;;;;;;;;;;;;;;;;;;5053918;28;20382;-91
2022/04/10 19:29:50;;;;;;;;;;;;;;;;;;5055531;28;19916;-91
2022/04/10 19:32:16;;;;;;;;;;;;;;;;;;5068372;28;19932;-90
2022/04/10 19:35:07;;;;;;;;;;;;;;;;;;5049119;28;19917;-89